createdAt,value
2023-03-03T00:00:06.039Z,0.80
2023-03-03T00:02:32.863Z,0.80
2023-03-03T00:04:59.769Z,0.80
2023-03-03T00:07:26.466Z,0.70
2023-03-03T00:09:53.317Z,0.70
2023-03-03T00:12:27.505Z,0.80
2023-03-03T00:14:54.964Z,0.70
2023-03-03T00:17:27.821Z,0.60
2023-03-03T00:19:55.350Z,0.40
2023-03-03T00:22:36.236Z,0.20
2023-03-03T00:25:31.931Z,0.40
2023-03-03T00:28:17.748Z,0.70
2023-03-03T00:30:44.483Z,0.50
2023-03-03T00:33:33.122Z,0.50
2023-03-03T00:36:15.415Z,0.70
2023-03-03T00:38:42.947Z,0.70
2023-03-03T00:41:39.640Z,0.50
2023-03-03T00:44:25.762Z,0.30
2023-03-03T00:46:54.182Z,0.30
2023-03-03T00:49:26.911Z,0.30
2023-03-03T00:51:54.619Z,0.30
2023-03-03T00:54:21.464Z,0.60
2023-03-03T00:56:48.216Z,0.70
2023-03-03T00:59:14.935Z,0.60
2023-03-03T01:01:41.736Z,0.80
2023-03-03T01:04:08.480Z,0.80
2023-03-03T01:06:35.308Z,0.50
2023-03-03T01:09:02.013Z,0.30
2023-03-03T01:11:29.255Z,0.30
2023-03-03T01:13:56.828Z,0.20
2023-03-03T01:16:23.650Z,0.30
2023-03-03T01:18:50.335Z,0.20
2023-03-03T01:21:18.030Z,0.10
2023-03-03T01:23:44.812Z,0.10
2023-03-03T01:26:11.634Z,0.10
2023-03-03T01:28:38.364Z,0.20
2023-03-03T01:31:06.286Z,0.10
2023-03-03T01:33:35.345Z,0.00
2023-03-03T01:36:03.084Z,0.00
2023-03-03T01:38:30.531Z,-0.10
2023-03-03T01:40:59.320Z,-0.10
2023-03-03T01:43:31.939Z,0.10
2023-03-03T01:45:58.565Z,0.00
2023-03-03T01:48:42.525Z,0.00
2023-03-03T01:51:26.243Z,-0.10
2023-03-03T01:54:06.726Z,-0.10
2023-03-03T01:56:33.692Z,0.00
2023-03-03T01:59:13.465Z,0.00
2023-03-03T02:01:41.473Z,-0.10
2023-03-03T02:04:09.539Z,-0.20
2023-03-03T02:06:40.176Z,-0.20
2023-03-03T02:09:18.724Z,-0.20
2023-03-03T02:11:47.791Z,-0.20
2023-03-03T02:14:19.039Z,-0.30
2023-03-03T02:16:45.991Z,-0.20
2023-03-03T02:19:44.117Z,-0.20
2023-03-03T02:22:13.461Z,-0.30
2023-03-03T02:24:49.008Z,-0.30
2023-03-03T02:27:15.838Z,-0.30
2023-03-03T02:29:42.514Z,-0.20
2023-03-03T02:32:09.302Z,0.10
2023-03-03T02:34:48.085Z,-0.10
2023-03-03T02:37:14.801Z,-0.30
2023-03-03T02:39:41.649Z,-0.40
2023-03-03T02:42:18.138Z,-0.40
2023-03-03T02:44:45.925Z,-0.10
2023-03-03T02:47:12.618Z,0.00
2023-03-03T02:49:39.674Z,-0.20
2023-03-03T02:52:11.601Z,-0.10
2023-03-03T02:54:38.670Z,0.00
2023-03-03T02:57:06.167Z,-0.10
2023-03-03T02:59:33.019Z,-0.20
2023-03-03T03:02:00.139Z,-0.30
2023-03-03T03:04:27.868Z,-0.30
2023-03-03T03:06:55.473Z,-0.40
2023-03-03T03:09:24.427Z,-0.40
2023-03-03T03:11:51.316Z,-0.50
2023-03-03T03:14:18.010Z,-0.60
2023-03-03T03:16:44.919Z,-0.60
2023-03-03T03:19:11.896Z,-0.60
2023-03-03T03:21:38.759Z,-0.50
2023-03-03T03:24:05.770Z,-0.50
2023-03-03T03:26:32.472Z,-0.60
2023-03-03T03:28:59.190Z,-0.70
2023-03-03T03:31:25.964Z,-0.60
2023-03-03T03:33:53.048Z,-0.60
2023-03-03T03:36:19.812Z,-0.60
2023-03-03T03:38:46.536Z,-0.70
2023-03-03T03:41:13.893Z,-0.70
2023-03-03T03:43:40.639Z,-0.70
2023-03-03T03:46:08.142Z,-0.60
2023-03-03T03:48:35.354Z,-0.60
2023-03-03T03:51:02.737Z,-0.60
2023-03-03T03:53:29.454Z,-0.70
2023-03-03T03:55:56.485Z,-0.70
2023-03-03T03:58:23.201Z,-0.70
2023-03-03T04:00:50.200Z,-0.60
2023-03-03T04:03:17.063Z,-0.50
2023-03-03T04:05:44.321Z,-0.50
2023-03-03T04:08:11.347Z,-0.60
2023-03-03T04:10:38.857Z,-0.50
2023-03-03T04:13:05.621Z,-0.50
2023-03-03T04:15:32.423Z,-0.60
2023-03-03T04:17:59.214Z,-0.70
2023-03-03T04:20:25.942Z,-0.70
2023-03-03T04:22:52.921Z,-0.70
2023-03-03T04:25:19.863Z,-0.70
2023-03-03T04:27:46.650Z,-0.70
2023-03-03T04:30:15.185Z,-0.60
2023-03-03T04:32:42.046Z,-0.50
2023-03-03T04:35:09.592Z,-0.60
2023-03-03T04:37:37.556Z,-0.60
2023-03-03T04:40:08.521Z,-0.50
2023-03-03T04:42:35.652Z,-0.50
2023-03-03T04:45:02.899Z,-0.60
2023-03-03T04:47:29.645Z,-0.70
2023-03-03T04:49:56.452Z,-0.70
2023-03-03T04:52:23.160Z,-0.70
2023-03-03T04:54:49.877Z,-0.80
2023-03-03T04:57:16.635Z,-0.80
2023-03-03T04:59:43.418Z,-0.80
2023-03-03T05:02:10.265Z,-0.90
2023-03-03T05:04:37.024Z,-0.90
2023-03-03T05:07:04.076Z,-0.90
2023-03-03T05:09:30.989Z,-0.90
2023-03-03T05:11:57.706Z,-0.90
2023-03-03T05:14:24.452Z,-0.90
2023-03-03T05:16:51.515Z,-0.90
2023-03-03T05:19:18.275Z,-0.90
2023-03-03T05:21:45.021Z,-0.90
2023-03-03T05:24:14.334Z,-0.90
2023-03-03T05:26:41.915Z,-0.80
2023-03-03T05:29:09.736Z,-0.70
2023-03-03T05:31:36.852Z,-0.70
2023-03-03T05:34:03.697Z,-0.70
2023-03-03T05:36:30.656Z,-0.80
2023-03-03T05:38:57.392Z,-0.80
2023-03-03T05:41:24.265Z,-0.70
2023-03-03T05:43:51.282Z,-0.60
2023-03-03T05:46:18.078Z,-0.60
2023-03-03T05:48:45.361Z,-0.60
2023-03-03T05:51:12.289Z,-0.60
2023-03-03T05:53:39.456Z,-0.60
2023-03-03T05:56:06.566Z,-0.50
2023-03-03T05:58:33.396Z,-0.50
2023-03-03T06:01:00.484Z,-0.40
2023-03-03T06:03:27.471Z,-0.30
2023-03-03T06:05:54.240Z,-0.30
2023-03-03T06:08:20.972Z,-0.30
2023-03-03T06:10:47.875Z,-0.40
2023-03-03T06:13:14.652Z,-0.30
2023-03-03T06:15:41.501Z,-0.30
2023-03-03T06:18:08.453Z,-0.30
2023-03-03T06:20:35.544Z,-0.40
2023-03-03T06:23:02.512Z,-0.60
2023-03-03T06:25:29.289Z,-0.50
2023-03-03T06:27:56.155Z,-0.50
2023-03-03T06:30:22.892Z,-0.50
2023-03-03T06:32:49.600Z,-0.50
2023-03-03T06:35:16.414Z,-0.50
2023-03-03T06:37:43.177Z,-0.40
2023-03-03T06:40:10.398Z,-0.30
2023-03-03T06:42:37.146Z,0.00
2023-03-03T06:45:04.427Z,0.30
2023-03-03T06:47:31.706Z,0.20
2023-03-03T06:49:58.429Z,0.10
2023-03-03T06:52:27.258Z,0.10
2023-03-03T06:54:57.123Z,0.20
2023-03-03T06:57:28.989Z,0.20
2023-03-03T06:59:59.446Z,0.30
2023-03-03T07:02:26.287Z,0.30
2023-03-03T07:04:56.398Z,0.40
2023-03-03T07:07:25.880Z,0.40
2023-03-03T07:09:56.776Z,0.20
2023-03-03T07:12:32.357Z,0.20
2023-03-03T07:15:27.074Z,0.30
2023-03-03T07:18:00.141Z,0.40
2023-03-03T07:20:36.777Z,0.50
2023-03-03T07:23:28.409Z,0.50
2023-03-03T07:25:55.355Z,0.70
2023-03-03T07:28:28.712Z,0.70
2023-03-03T07:30:57.549Z,0.70
2023-03-03T07:33:31.723Z,0.80
2023-03-03T07:36:00.314Z,0.90
2023-03-03T07:38:42.348Z,1.00
2023-03-03T07:41:23.595Z,0.80
2023-03-03T07:43:55.872Z,0.70
2023-03-03T07:46:42.988Z,0.70
2023-03-03T07:49:16.534Z,0.70
2023-03-03T07:51:43.470Z,0.70
2023-03-03T07:54:30.443Z,0.60
2023-03-03T07:57:13.282Z,0.70
2023-03-03T07:59:55.890Z,0.90
2023-03-03T08:02:28.780Z,0.90
2023-03-03T08:04:55.805Z,0.90
2023-03-03T08:07:23.723Z,1.00
2023-03-03T08:09:56.982Z,1.00
2023-03-03T08:12:32.251Z,1.20
2023-03-03T08:15:22.853Z,1.40
2023-03-03T08:17:51.105Z,1.50
2023-03-03T08:20:48.114Z,1.60
2023-03-03T08:23:16.316Z,1.70
2023-03-03T08:25:44.085Z,1.70
2023-03-03T08:28:12.545Z,1.70
2023-03-03T08:30:39.476Z,1.80
2023-03-03T08:33:06.674Z,1.70
2023-03-03T08:35:33.473Z,1.70
2023-03-03T08:38:00.442Z,1.80
2023-03-03T08:40:27.249Z,1.90
2023-03-03T08:42:54.463Z,1.90
2023-03-03T08:45:21.314Z,1.70
2023-03-03T08:47:47.978Z,1.50
2023-03-03T08:50:15.384Z,1.60
2023-03-03T08:52:42.157Z,1.60
2023-03-03T08:55:09.194Z,1.70
2023-03-03T08:57:36.132Z,1.80
2023-03-03T09:00:03.109Z,1.90
2023-03-03T09:02:29.873Z,2.00
2023-03-03T09:04:56.599Z,1.90
2023-03-03T09:07:23.321Z,1.80
2023-03-03T09:09:50.171Z,1.90
2023-03-03T09:12:38.506Z,1.90
2023-03-03T09:15:20.900Z,2.00
2023-03-03T09:17:48.282Z,2.00
2023-03-03T09:20:35.627Z,2.00
2023-03-03T09:23:28.648Z,1.90
2023-03-03T09:25:55.460Z,2.10
2023-03-03T09:28:29.648Z,2.40
2023-03-03T09:31:01.659Z,2.40
2023-03-03T09:33:31.187Z,2.50
2023-03-03T09:36:01.074Z,2.30
2023-03-03T09:38:33.202Z,2.40
2023-03-03T09:40:59.919Z,2.60
2023-03-03T09:43:42.388Z,2.60
2023-03-03T09:46:33.740Z,2.70
2023-03-03T09:49:24.779Z,2.70
2023-03-03T09:52:21.901Z,2.90
2023-03-03T09:55:03.698Z,3.00
2023-03-03T09:57:55.788Z,2.80
2023-03-03T10:00:54.615Z,3.00
2023-03-03T10:03:57.866Z,3.00
2023-03-03T10:06:52.800Z,3.20
2023-03-03T10:09:34.572Z,3.30
2023-03-03T10:12:27.108Z,3.40
2023-03-03T10:15:11.890Z,3.50
2023-03-03T10:18:07.755Z,3.60
2023-03-03T10:20:54.832Z,3.70
2023-03-03T10:23:40.080Z,3.70
2023-03-03T10:26:45.581Z,3.60
2023-03-03T10:29:23.696Z,3.80
2023-03-03T10:32:29.092Z,3.90
2023-03-03T10:35:18.481Z,3.90
2023-03-03T10:38:02.407Z,3.90
2023-03-03T10:40:50.961Z,4.00
2023-03-03T10:43:31.129Z,4.30
2023-03-03T10:46:13.231Z,4.50
2023-03-03T10:48:55.732Z,4.40
2023-03-03T10:51:37.484Z,4.40
2023-03-03T10:54:18.993Z,4.60
2023-03-03T10:56:53.649Z,4.50
2023-03-03T10:59:36.580Z,4.70
2023-03-03T11:02:25.464Z,4.60
2023-03-03T11:05:04.111Z,4.70
2023-03-03T11:07:36.308Z,4.80
2023-03-03T11:10:30.223Z,4.80
2023-03-03T11:13:15.110Z,5.10
2023-03-03T11:16:17.185Z,5.10
2023-03-03T11:19:05.915Z,5.10
2023-03-03T11:21:47.649Z,5.20
2023-03-03T11:24:45.733Z,5.20
2023-03-03T11:27:56.819Z,5.40
2023-03-03T11:30:35.821Z,5.70
2023-03-03T11:33:46.515Z,5.70
2023-03-03T11:36:26.114Z,5.80
2023-03-03T11:39:11.378Z,5.60
2023-03-03T11:41:50.692Z,6.00
2023-03-03T11:44:32.218Z,6.10
2023-03-03T11:47:09.132Z,6.20
2023-03-03T11:49:57.672Z,6.00
2023-03-03T11:52:31.851Z,6.10
2023-03-03T11:55:15.340Z,6.20
2023-03-03T11:57:44.117Z,6.50
2023-03-03T12:00:30.732Z,6.30
2023-03-03T12:03:28.861Z,6.50
2023-03-03T12:06:04.841Z,6.80
2023-03-03T12:08:53.516Z,6.60
2023-03-03T12:11:37.869Z,6.90
2023-03-03T12:14:19.248Z,7.00
2023-03-03T12:16:59.913Z,7.10
2023-03-03T12:19:29.641Z,7.30
2023-03-03T12:22:34.210Z,7.40
2023-03-03T12:25:09.881Z,7.50
2023-03-03T12:27:43.480Z,7.20
2023-03-03T12:30:44.268Z,7.40
2023-03-03T12:33:35.596Z,7.60
2023-03-03T12:36:16.437Z,7.70
2023-03-03T12:39:10.353Z,7.60
2023-03-03T12:42:03.842Z,7.70
2023-03-03T12:45:07.481Z,7.70
2023-03-03T12:48:16.279Z,7.80
2023-03-03T12:51:01.907Z,8.00
2023-03-03T12:53:50.507Z,8.10
2023-03-03T12:56:41.671Z,8.00
2023-03-03T12:59:54.906Z,8.00
2023-03-03T13:02:52.055Z,8.00
2023-03-03T13:05:57.957Z,8.30
2023-03-03T13:08:33.015Z,8.40
2023-03-03T13:11:22.162Z,8.40
2023-03-03T13:13:53.562Z,8.40
2023-03-03T13:16:42.145Z,8.60
2023-03-03T13:19:36.880Z,8.90
2023-03-03T13:22:16.669Z,8.60
2023-03-03T13:25:10.224Z,8.70
2023-03-03T13:27:50.626Z,8.70
2023-03-03T13:30:26.108Z,8.70
2023-03-03T13:33:25.976Z,8.70
2023-03-03T13:36:01.077Z,8.40
2023-03-03T13:38:46.536Z,8.50
2023-03-03T13:41:32.665Z,8.80
2023-03-03T13:44:13.144Z,8.80
2023-03-03T13:46:56.734Z,8.60
2023-03-03T13:49:51.376Z,8.60
2023-03-03T13:52:25.008Z,9.00
2023-03-03T13:55:08.792Z,9.10
2023-03-03T13:58:28.062Z,9.10
2023-03-03T14:01:01.517Z,9.30
2023-03-03T14:03:54.041Z,9.20
2023-03-03T14:06:27.156Z,9.20
2023-03-03T14:08:59.934Z,9.50
2023-03-03T14:11:45.269Z,9.50
2023-03-03T14:14:21.154Z,9.60
2023-03-03T14:16:58.087Z,9.30
2023-03-03T14:19:42.244Z,9.50
2023-03-03T14:22:36.359Z,9.50
2023-03-03T14:25:08.105Z,9.60
2023-03-03T14:27:49.360Z,9.70
2023-03-03T14:30:25.006Z,9.70
2023-03-03T14:33:02.725Z,10.00
2023-03-03T14:35:33.607Z,9.90
2023-03-03T14:38:12.092Z,9.90
2023-03-03T14:40:42.929Z,9.70
2023-03-03T14:43:44.013Z,9.90
2023-03-03T14:46:34.630Z,9.90
2023-03-03T14:49:05.367Z,9.90
2023-03-03T14:51:47.515Z,10.00
2023-03-03T14:54:26.444Z,9.90
2023-03-03T14:57:00.916Z,9.70
2023-03-03T14:59:28.567Z,9.80
2023-03-03T15:02:29.721Z,10.00
2023-03-03T15:05:27.272Z,9.90
2023-03-03T15:07:57.280Z,9.70
2023-03-03T15:10:36.462Z,9.80
2023-03-03T15:13:10.388Z,10.00
2023-03-03T15:16:00.782Z,10.00
2023-03-03T15:18:29.540Z,9.80
2023-03-03T15:21:02.195Z,9.60
2023-03-03T15:23:50.209Z,9.60
2023-03-03T15:26:38.504Z,9.70
2023-03-03T15:29:21.384Z,9.80
2023-03-03T15:31:57.223Z,9.60
2023-03-03T15:34:40.345Z,9.70
2023-03-03T15:37:42.464Z,9.60
2023-03-03T15:40:24.654Z,9.60
2023-03-03T15:42:54.500Z,9.50
2023-03-03T15:45:37.634Z,9.40
2023-03-03T15:48:39.767Z,9.30
2023-03-03T15:51:50.681Z,9.50
2023-03-03T15:54:46.235Z,9.50
2023-03-03T15:57:34.049Z,9.40
2023-03-03T16:00:35.755Z,9.40
2023-03-03T16:03:35.164Z,9.30
2023-03-03T16:06:08.309Z,9.20
2023-03-03T16:08:54.606Z,9.10
2023-03-03T16:11:28.247Z,9.30
2023-03-03T16:14:44.152Z,9.20
2023-03-03T16:17:28.830Z,9.20
2023-03-03T16:20:23.081Z,9.00
2023-03-03T16:22:58.949Z,8.80
2023-03-03T16:25:55.206Z,8.80
2023-03-03T16:28:53.135Z,8.80
2023-03-03T16:31:37.956Z,8.60
2023-03-03T16:34:17.138Z,8.50
2023-03-03T16:36:49.679Z,8.50
2023-03-03T16:39:37.036Z,8.50
2023-03-03T16:42:25.478Z,8.40
2023-03-03T16:45:39.239Z,8.30
2023-03-03T16:48:25.980Z,8.20
2023-03-03T16:51:13.203Z,8.10
2023-03-03T16:53:53.408Z,8.10
2023-03-03T16:56:25.638Z,7.90
2023-03-03T16:58:52.311Z,7.80
2023-03-03T17:01:31.095Z,7.80
2023-03-03T17:04:24.459Z,7.70
2023-03-03T17:07:02.872Z,7.70
2023-03-03T17:09:33.495Z,7.60
2023-03-03T17:12:09.304Z,7.40
2023-03-03T17:14:57.968Z,7.40
2023-03-03T17:17:43.110Z,7.20
2023-03-03T17:20:24.944Z,7.10
2023-03-03T17:23:26.953Z,7.00
2023-03-03T17:26:27.140Z,7.00
2023-03-03T17:28:59.690Z,7.00
2023-03-03T17:31:29.416Z,6.90
2023-03-03T17:34:06.578Z,6.70
2023-03-03T17:36:43.189Z,6.60
2023-03-03T17:39:10.024Z,6.70
2023-03-03T17:41:51.767Z,6.60
2023-03-03T17:44:37.489Z,6.60
2023-03-03T17:47:20.527Z,6.50
2023-03-03T17:50:07.792Z,6.40
2023-03-03T17:52:47.805Z,6.30
2023-03-03T17:55:35.303Z,6.20
2023-03-03T17:58:20.871Z,6.10
2023-03-03T18:01:09.363Z,6.00
2023-03-03T18:03:51.710Z,5.90
2023-03-03T18:06:56.772Z,5.80
2023-03-03T18:09:42.039Z,5.80
2023-03-03T18:12:26.857Z,5.90
2023-03-03T18:15:23.444Z,5.80
2023-03-03T18:18:03.680Z,5.80
2023-03-03T18:20:52.340Z,5.70
2023-03-03T18:23:41.583Z,5.60
2023-03-03T18:26:32.858Z,5.50
2023-03-03T18:29:11.483Z,5.40
2023-03-03T18:32:00.171Z,5.30
2023-03-03T18:34:26.862Z,5.30
2023-03-03T18:37:31.811Z,5.20
2023-03-03T18:40:04.579Z,5.20
2023-03-03T18:42:38.077Z,5.20
2023-03-03T18:45:31.222Z,5.10
2023-03-03T18:48:06.789Z,5.10
2023-03-03T18:50:35.806Z,5.10
2023-03-03T18:53:34.241Z,5.00
2023-03-03T18:56:02.843Z,5.00
2023-03-03T18:58:37.555Z,4.90
2023-03-03T19:01:44.466Z,4.90
2023-03-03T19:04:16.233Z,4.90
2023-03-03T19:06:43.107Z,4.90
2023-03-03T19:09:17.592Z,4.90
2023-03-03T19:11:51.088Z,4.90
2023-03-03T19:14:30.837Z,4.80
2023-03-03T19:17:18.910Z,4.80
2023-03-03T19:20:07.689Z,4.80
2023-03-03T19:22:48.048Z,4.80
2023-03-03T19:25:22.434Z,4.70
2023-03-03T19:28:15.207Z,4.70
2023-03-03T19:30:58.579Z,4.70
2023-03-03T19:33:50.902Z,4.70
2023-03-03T19:36:22.375Z,4.70
2023-03-03T19:39:17.117Z,4.70
2023-03-03T19:41:57.052Z,4.70
2023-03-03T19:44:35.786Z,4.80
2023-03-03T19:47:09.074Z,4.90
2023-03-03T19:50:07.701Z,4.90
2023-03-03T19:52:49.476Z,4.90
2023-03-03T19:55:16.182Z,4.90
2023-03-03T19:58:01.359Z,4.80
2023-03-03T20:00:41.993Z,4.70
2023-03-03T20:03:30.574Z,4.60
2023-03-03T20:06:24.999Z,4.50
2023-03-03T20:08:51.659Z,4.40
2023-03-03T20:11:48.389Z,4.40
2023-03-03T20:14:21.196Z,4.40
2023-03-03T20:16:50.389Z,4.40
2023-03-03T20:19:43.812Z,4.40
2023-03-03T20:22:34.386Z,4.40
2023-03-03T20:25:15.515Z,4.40
2023-03-03T20:28:14.428Z,4.40
2023-03-03T20:30:41.113Z,4.50
2023-03-03T20:33:19.827Z,4.40
2023-03-03T20:35:58.517Z,4.40
2023-03-03T20:38:44.604Z,4.20
2023-03-03T20:41:23.073Z,4.20
2023-03-03T20:44:19.751Z,4.20
2023-03-03T20:47:18.260Z,4.10
2023-03-03T20:50:15.572Z,4.00
2023-03-03T20:52:48.599Z,4.00
2023-03-03T20:55:27.555Z,4.10
2023-03-03T20:58:11.253Z,4.10
2023-03-03T21:00:49.787Z,4.10
2023-03-03T21:03:29.194Z,4.10
2023-03-03T21:06:04.080Z,4.30
2023-03-03T21:08:57.603Z,4.30
2023-03-03T21:11:41.620Z,4.20
2023-03-03T21:14:37.878Z,4.20
2023-03-03T21:17:24.966Z,4.10
2023-03-03T21:19:51.683Z,4.10
2023-03-03T21:22:18.372Z,3.90
2023-03-03T21:25:00.913Z,3.90
2023-03-03T21:27:33.063Z,3.80
2023-03-03T21:30:02.918Z,3.70
2023-03-03T21:32:48.139Z,3.70
2023-03-03T21:35:21.913Z,3.60
2023-03-03T21:37:55.671Z,3.80
2023-03-03T21:40:30.207Z,3.70
2023-03-03T21:43:04.449Z,3.60
2023-03-03T21:45:31.326Z,3.30
2023-03-03T21:48:00.596Z,3.20
2023-03-03T21:50:32.205Z,3.20
2023-03-03T21:52:58.849Z,3.20
2023-03-03T21:55:26.767Z,3.20
2023-03-03T21:57:53.588Z,3.20
2023-03-03T22:00:20.688Z,3.10
2023-03-03T22:02:47.399Z,3.10
2023-03-03T22:05:14.161Z,3.20
2023-03-03T22:07:40.808Z,3.20
2023-03-03T22:10:09.830Z,3.00
2023-03-03T22:12:36.655Z,2.90
2023-03-03T22:15:03.541Z,2.70
2023-03-03T22:17:30.365Z,2.70
2023-03-03T22:19:57.112Z,2.70
2023-03-03T22:22:24.488Z,2.80
2023-03-03T22:24:51.218Z,2.80
2023-03-03T22:27:17.918Z,2.70
2023-03-03T22:29:44.650Z,2.80
2023-03-03T22:32:11.460Z,2.90
2023-03-03T22:34:38.324Z,2.70
2023-03-03T22:37:05.158Z,2.60
2023-03-03T22:39:31.843Z,2.50
2023-03-03T22:41:58.612Z,2.40
2023-03-03T22:44:25.472Z,2.40
2023-03-03T22:46:52.247Z,2.30
2023-03-03T22:49:18.966Z,2.30
2023-03-03T22:51:45.751Z,2.30
2023-03-03T22:54:12.574Z,2.40
2023-03-03T22:56:39.394Z,2.50
2023-03-03T22:59:06.148Z,2.50
2023-03-03T23:01:32.918Z,2.40
2023-03-03T23:04:02.729Z,2.20
2023-03-03T23:06:29.446Z,2.20
2023-03-03T23:08:56.122Z,2.20
2023-03-03T23:11:24.681Z,2.30
2023-03-03T23:13:51.492Z,2.20
2023-03-03T23:16:18.347Z,2.00
2023-03-03T23:18:45.114Z,2.00
2023-03-03T23:21:12.228Z,1.90
2023-03-03T23:23:38.920Z,2.00
2023-03-03T23:26:05.692Z,2.00
2023-03-03T23:28:32.481Z,2.00
2023-03-03T23:30:59.233Z,2.00
2023-03-03T23:33:25.986Z,2.00
2023-03-03T23:35:52.911Z,2.00
2023-03-03T23:38:19.680Z,1.90
2023-03-03T23:40:49.241Z,1.90
2023-03-03T23:43:16.245Z,1.90
2023-03-03T23:45:43.193Z,1.90
2023-03-03T23:48:10.549Z,1.90
2023-03-03T23:50:38.037Z,1.90
2023-03-03T23:53:06.406Z,1.90
2023-03-03T23:55:33.421Z,1.90
2023-03-03T23:58:00.122Z,1.80
